Time;durP1;ratioP1;P1;durP2;ratioP2;P2;SDS_P1;SDS_P2;PMS_P1;PMS_P2;Temp;Humidity;BMP_temperature;BMP_pressure;BME280_temperature;BME280_humidity;BME280_pressure;Samples;Min_cycle;Max_cycle;Signal;HPM_P1;HPM_P2
2023/04/09 00:00:04;;;;;;;7.65;3.17;;;;;;;-4.32;49.70;97939.91;6289964;28;20052;-63
2023/04/09 00:03:09;;;;;;;7.80;3.70;;;;;;;-4.31;49.37;97949.31;6286655;28;20041;-62
2023/04/09 00:06:10;;;;;;;7.85;4.05;;;;;;;-4.33;49.51;97961.28;6286524;28;20049;-62
2023/04/09 00:09:15;;;;;;;7.55;3.55;;;;;;;-4.35;49.79;97952.72;6288987;28;20520;-63
2023/04/09 00:12:21;;;;;;;10.75;4.28;;;;;;;-4.44;49.36;97953.47;6290392;28;20704;-62
2023/04/09 00:15:27;;;;;;;14.02;5.03;;;;;;;-4.43;50.09;97956.91;6291560;28;20045;-63
2023/04/09 00:18:30;;;;;;;9.48;4.00;;;;;;;-4.48;50.03;97950.84;6286587;28;20051;-63
2023/04/09 00:21:37;;;;;;;10.05;4.10;;;;;;;-4.49;49.72;97954.28;6290326;28;20111;-63
2023/04/09 00:24:44;;;;;;;10.70;4.28;;;;;;;-4.56;50.13;97951.63;6291553;28;20040;-62
2023/04/09 00:27:45;;;;;;;10.50;4.60;;;;;;;-4.56;50.16;97945.59;6288636;28;20049;-62
2023/04/09 00:30:51;;;;;;;12.30;5.22;;;;;;;-4.57;50.41;97949.88;6291138;28;20052;-62
2023/04/09 00:33:55;;;;;;;10.85;4.57;;;;;;;-4.59;49.95;97948.16;6290361;28;20044;-63
2023/04/09 00:36:56;;;;;;;13.55;4.70;;;;;;;-4.61;50.25;97948.16;6292878;28;20056;-63
2023/04/09 00:39:57;;;;;;;13.30;5.00;;;;;;;-4.58;49.93;97950.75;6295035;28;20691;-62
2023/04/09 00:42:59;;;;;;;17.75;5.93;;;;;;;-4.57;50.08;97957.59;6294492;28;20521;-62
2023/04/09 00:46:03;;;;;;;12.70;5.47;;;;;;;-4.59;50.59;97949.00;6291728;28;20060;-63
2023/04/09 00:49:05;;;;;;;19.45;6.68;;;;;;;-4.64;50.24;97955.81;6294221;28;20044;-63
2023/04/09 00:52:13;;;;;;;10.05;5.82;;;;;;;-4.68;50.64;97958.31;6292235;28;20044;-63
2023/04/09 00:55:17;;;;;;;13.57;6.68;;;;;;;-4.72;50.58;97957.41;6287953;28;20059;-63
2023/04/09 00:58:21;;;;;;;16.73;7.05;;;;;;;-4.77;50.01;97959.91;6292648;28;20056;-63
2023/04/09 01:01:22;;;;;;;18.60;6.80;;;;;;;-4.80;50.41;97959.88;6295416;28;20524;-63
2023/04/09 01:04:26;;;;;;;17.27;7.75;;;;;;;-4.83;50.89;97956.41;6290357;28;20052;-63
2023/04/09 01:08:06;;;;;;;19.88;7.97;;;;;;;-4.82;51.51;97961.56;6294679;28;20056;-63
2023/04/09 01:11:18;;;;;;;19.10;8.57;;;;;;;-4.84;51.10;97959.81;6293955;28;20047;-62
2023/04/09 01:14:28;;;;;;;21.00;8.85;;;;;;;-4.82;50.78;97955.56;6294107;28;20048;-61
2023/04/09 01:18:05;;;;;;;25.58;10.02;;;;;;;-4.80;51.22;97964.16;6295646;28;20044;-63
2023/04/09 01:21:13;;;;;;;44.67;16.38;;;;;;;-4.80;50.54;97965.00;6291259;28;20068;-63
2023/04/09 01:24:45;;;;;;;28.58;11.77;;;;;;;-4.79;50.91;97963.31;6295253;28;20045;-63
2023/04/09 01:28:07;;;;;;;31.02;13.15;;;;;;;-4.77;51.12;97962.47;6288592;28;20044;-63
2023/04/09 01:31:17;;;;;;;38.35;14.45;;;;;;;-4.78;51.04;97959.91;6288709;28;20060;-62
2023/04/09 01:34:22;;;;;;;34.78;13.40;;;;;;;-4.76;50.57;97955.63;6291606;28;20093;-62
2023/04/09 01:37:24;;;;;;;23.88;11.88;;;;;;;-4.69;50.35;97962.59;6287710;28;20059;-62
2023/04/09 01:40:28;;;;;;;38.13;14.68;;;;;;;-4.59;49.95;97966.13;6294110;28;20048;-63
2023/04/09 01:43:32;;;;;;;37.75;15.13;;;;;;;-4.56;49.83;97972.19;6294746;28;20049;-63
2023/04/09 01:46:38;;;;;;;39.92;14.45;;;;;;;-4.52;50.01;97968.78;6295198;28;20086;-63
2023/04/09 01:49:42;;;;;;;40.47;15.35;;;;;;;-4.48;49.90;97971.41;6292214;28;20532;-63
2023/04/09 01:52:43;;;;;;;37.95;15.32;;;;;;;-4.44;49.24;97976.59;6290324;28;20525;-63
2023/04/09 01:55:47;;;;;;;35.03;14.85;;;;;;;-4.40;49.78;97974.91;6294280;28;20039;-63
2023/04/09 01:58:48;;;;;;;35.45;14.52;;;;;;;-4.36;49.80;97980.13;6292972;28;20044;-64
2023/04/09 02:01:58;;;;;;;35.65;14.15;;;;;;;-4.29;49.73;97983.63;6291751;28;20028;-63
2023/04/09 02:05:06;;;;;;;38.30;13.85;;;;;;;-4.20;49.26;97988.84;6287985;28;20139;-63
2023/04/09 02:08:15;;;;;;;38.22;12.80;;;;;;;-4.14;49.42;97994.06;6291738;28;20665;-63
2023/04/09 02:11:20;;;;;;;35.60;12.63;;;;;;;-4.08;49.42;97993.25;6293419;28;20041;-63
2023/04/09 02:14:25;;;;;;;26.25;11.70;;;;;;;-4.01;48.82;97989.06;6287384;28;20093;-63
2023/04/09 02:17:31;;;;;;;35.47;11.48;;;;;;;-3.95;49.31;97978.84;6286929;28;20040;-63
2023/04/09 02:20:35;;;;;;;25.48;10.07;;;;;;;-3.88;48.84;97989.22;6292215;28;20154;-62
2023/04/09 02:23:40;;;;;;;30.42;10.52;;;;;;;-3.76;49.04;97997.91;6290975;28;20051;-62
2023/04/09 02:26:41;;;;;;;25.30;9.77;;;;;;;-3.69;48.95;98000.53;6293099;28;20045;-62
2023/04/09 02:29:43;;;;;;;29.60;10.10;;;;;;;-3.62;48.88;97993.75;6292468;28;20055;-62
2023/04/09 02:32:44;;;;;;;29.13;11.18;;;;;;;-3.51;48.82;97996.38;6292587;28;20041;-63
2023/04/09 02:35:48;;;;;;;26.13;11.23;;;;;;;-3.43;48.27;97999.91;6291817;28;20060;-63
2023/04/09 02:38:51;;;;;;;65.03;14.52;;;;;;;-3.33;48.93;98009.44;6292103;28;20052;-62
2023/04/09 02:41:53;;;;;;;31.98;14.05;;;;;;;-3.29;48.71;97993.16;6293445;28;20045;-62
2023/04/09 02:44:57;;;;;;;19.67;8.45;;;;;;;-3.09;48.04;98002.72;6291529;28;20040;-62
2023/04/09 02:47:59;;;;;;;23.80;8.77;;;;;;;-3.00;47.80;98002.78;6291858;28;20048;-62
2023/04/09 02:51:00;;;;;;;21.10;8.93;;;;;;;-2.93;47.97;98007.16;6292598;28;20044;-63
2023/04/09 02:54:02;;;;;;;23.70;9.63;;;;;;;-2.79;47.85;98002.09;6291160;28;20052;-63
2023/04/09 02:57:07;;;;;;;24.52;9.38;;;;;;;-2.65;47.63;98004.75;6292366;28;20036;-62
2023/04/09 03:00:09;;;;;;;21.80;8.43;;;;;;;-2.53;47.25;97997.06;6288318;28;20038;-63
2023/04/09 03:03:10;;;;;;;22.38;8.13;;;;;;;-2.46;46.55;97987.63;6289138;28;20053;-62
2023/04/09 03:06:11;;;;;;;23.73;8.50;;;;;;;-2.29;46.41;97998.91;6289391;28;20053;-63
2023/04/09 03:09:13;;;;;;;15.68;7.47;;;;;;;-2.16;45.94;97998.06;6293111;28;20501;-63
2023/04/09 03:12:16;;;;;;;24.40;8.70;;;;;;;-2.02;45.54;97990.38;6291499;28;20055;-63
2023/04/09 03:15:18;;;;;;;24.45;8.25;;;;;;;-1.85;44.78;97999.03;6292271;28;20137;-62
2023/04/09 03:18:21;;;;;;;32.28;8.98;;;;;;;-1.66;43.90;97999.94;6285233;28;20086;-62
2023/04/09 03:21:25;;;;;;;22.70;7.75;;;;;;;-1.50;43.74;97995.66;6290134;28;20318;-62
2023/04/09 03:24:26;;;;;;;;;;;;;;;-1.36;43.45;98004.28;6285193;28;20044;-63
2023/04/09 03:27:27;;;;;;;21.65;7.97;;;;;;;-1.21;42.45;97994.81;6287349;28;19920;-62
2023/04/09 03:30:31;;;;;;;38.45;8.38;;;;;;;-1.08;42.20;97993.91;6292896;28;20614;-63
2023/04/09 03:33:32;;;;;;;22.23;8.10;;;;;;;-0.95;41.92;98000.81;6288172;28;20143;-63
2023/04/09 03:36:34;;;;;;;26.42;8.02;;;;;;;-0.80;41.78;97999.06;6291098;28;20539;-62
2023/04/09 03:39:35;;;;;;;22.23;7.35;;;;;;;-0.64;41.26;97995.59;6291870;28;20037;-63
2023/04/09 03:42:41;;;;;;;35.28;8.95;;;;;;;-0.49;40.98;97992.94;6291911;28;20044;-63
2023/04/09 03:45:42;;;;;;;24.42;7.45;;;;;;;-0.36;40.67;97995.50;6291428;28;20051;-63
2023/04/09 03:48:48;;;;;;;25.65;9.20;;;;;;;-0.20;40.75;97996.28;6289260;28;20040;-64
2023/04/09 03:51:50;;;;;;;31.08;10.70;;;;;;;-0.05;39.68;97989.34;6289604;28;20178;-63
2023/04/09 03:54:51;;;;;;;29.85;8.68;;;;;;;0.10;39.51;97997.91;6291456;28;20556;-62
2023/04/09 03:57:54;;;;;;;24.65;9.05;;;;;;;0.28;38.86;97995.19;6289194;28;20469;-63
2023/04/09 04:01:01;;;;;;;33.35;9.85;;;;;;;0.49;38.21;97998.53;6285029;28;20040;-62
2023/04/09 04:04:02;;;;;;;21.75;8.15;;;;;;;0.65;37.93;97994.94;6286400;28;20045;-63
2023/04/09 04:07:09;;;;;;;28.80;8.63;;;;;;;0.82;36.70;97998.28;6289620;28;20040;-63
2023/04/09 04:10:14;;;;;;;23.83;8.93;;;;;;;0.98;36.59;97998.13;6291731;28;20033;-63
2023/04/09 04:13:18;;;;;;;22.83;8.80;;;;;;;1.11;36.25;97997.16;6294161;28;20064;-63
2023/04/09 04:16:22;;;;;;;19.98;8.38;;;;;;;1.27;35.44;97990.94;6292523;28;20045;-63
2023/04/09 04:19:24;;;;;;;24.77;9.00;;;;;;;1.45;34.80;97989.91;6296370;28;20044;-63
2023/04/09 04:22:28;;;;;;;22.85;9.68;;;;;;;1.62;34.39;97992.31;6291676;28;20068;-63
2023/04/09 04:25:30;;;;;;;29.42;11.93;;;;;;;1.77;34.15;97997.31;6295954;28;20045;-62
2023/04/09 04:28:34;;;;;;;31.52;13.70;;;;;;;1.87;33.80;97976.44;6296123;28;20041;-63
2023/04/09 04:31:39;;;;;;;42.83;15.93;;;;;;;2.14;33.50;97986.47;6296400;28;20052;-62
2023/04/09 04:34:47;;;;;;;38.00;15.27;;;;;;;2.38;33.19;97989.63;6294947;28;20048;-63
2023/04/09 04:37:50;;;;;;;43.83;18.23;;;;;;;2.56;32.73;97994.53;6295601;28;20036;-63
2023/04/09 04:40:52;;;;;;;40.10;15.55;;;;;;;2.75;32.96;97983.88;6295998;28;20052;-63
2023/04/09 04:43:58;;;;;;;37.45;16.73;;;;;;;2.93;32.64;97993.97;6288954;28;20564;-63
2023/04/09 04:47:00;;;;;;;43.30;17.33;;;;;;;3.10;32.43;97994.53;6294230;28;20413;-62
2023/04/09 04:50:05;;;;;;;36.08;15.65;;;;;;;3.40;31.37;97988.81;6293030;28;20413;-63
2023/04/09 04:53:09;;;;;;;38.08;16.20;;;;;;;3.62;31.21;97991.88;6295420;28;20040;-63
2023/04/09 04:56:14;;;;;;;35.47;15.95;;;;;;;3.82;31.08;98000.13;6293821;28;20056;-64
2023/04/09 04:59:18;;;;;;;30.98;14.88;;;;;;;4.03;30.89;97991.91;6296261;28;20237;-63
2023/04/09 05:02:21;;;;;;;36.45;15.35;;;;;;;4.24;30.60;97995.78;6289446;28;20044;-65
2023/04/09 05:05:26;;;;;;;36.00;15.90;;;;;;;4.53;30.14;97998.63;6288519;28;20033;-63
2023/04/09 05:08:27;;;;;;;38.45;16.52;;;;;;;4.79;30.07;97992.84;6295401;28;20055;-63
2023/04/09 05:11:31;;;;;;;37.38;15.38;;;;;;;4.98;29.78;97977.59;6295377;28;20135;-64
2023/04/09 05:14:37;;;;;;;38.00;16.35;;;;;;;5.25;29.64;97995.16;6293387;28;20040;-63
2023/04/09 05:17:44;;;;;;;31.63;15.52;;;;;;;5.51;29.77;97988.41;6291494;28;20040;-62
2023/04/09 05:20:45;;;;;;;36.25;14.82;;;;;;;5.81;29.30;97991.94;6293511;28;20145;-63
2023/04/09 05:23:52;;;;;;;39.40;15.65;;;;;;;6.90;28.23;97992.16;6294347;28;20040;-64
2023/04/09 05:26:56;;;;;;;32.92;15.15;;;;;;;12.21;23.48;98000.25;6294681;28;20036;-63
2023/04/09 05:30:00;;;;;;;35.72;15.63;;;;;;;17.66;19.10;97996.09;6291863;28;20045;-63
2023/04/09 05:33:01;;;;;;;35.00;13.85;;;;;;;21.43;16.37;98001.25;6291404;28;20028;-63
2023/04/09 05:36:03;;;;;;;16.80;9.25;;;;;;;24.66;14.02;98005.53;6293039;28;20161;-64
2023/04/09 05:39:04;;;;;;;15.15;7.18;;;;;;;26.14;10.69;98004.03;6291928;28;20406;-64
2023/04/09 05:42:08;;;;;;;15.38;7.57;;;;;;;27.76;9.61;97993.53;6288821;28;20036;-63
2023/04/09 05:45:15;;;;;;;12.95;6.93;;;;;;;29.41;8.38;97998.06;6291926;28;20048;-65
2023/04/09 05:48:19;;;;;;;10.95;6.00;;;;;;;30.74;7.43;97997.31;6290384;28;20044;-68
2023/04/09 05:51:37;;;;;;;11.95;6.22;;;;;;;31.06;6.70;98000.47;6286596;28;20223;-68
2023/04/09 05:54:39;;;;;;;16.90;6.28;;;;;;;31.76;6.25;98001.94;6284356;28;20045;-66
2023/04/09 05:57:44;;;;;;;13.18;6.75;;;;;;;33.22;5.68;98000.13;6284339;28;20080;-68
2023/04/09 06:00:46;;;;;;;19.98;7.05;;;;;;;33.60;5.70;97991.13;6294302;28;20048;-67
2023/04/09 06:03:53;;;;;;;14.68;6.60;;;;;;;33.45;5.41;97994.97;6291571;28;20052;-67
2023/04/09 06:07:01;;;;;;;14.27;6.82;;;;;;;33.57;5.23;97997.03;6285534;28;20044;-66
2023/04/09 06:10:06;;;;;;;15.13;7.72;;;;;;;33.20;4.68;97994.03;6291931;28;20165;-67
2023/04/09 06:13:10;;;;;;;14.23;7.88;;;;;;;32.02;5.21;97959.50;6292071;28;20059;-67
2023/04/09 06:16:14;;;;;;;15.60;7.70;;;;;;;31.87;4.90;97981.44;6290665;28;20033;-66
2023/04/09 06:19:21;;;;;;;17.60;8.68;;;;;;;32.37;5.30;97981.03;6292938;28;20037;-67
2023/04/09 06:22:25;;;;;;;15.23;8.32;;;;;;;32.91;5.53;97970.88;6293280;28;20436;-67
2023/04/09 06:25:32;;;;;;;17.80;9.85;;;;;;;32.65;5.72;97962.56;6293832;28;20144;-67
2023/04/09 06:28:38;;;;;;;13.32;6.85;;;;;;;33.57;5.29;97977.91;6292690;28;20524;-67
2023/04/09 06:31:46;;;;;;;11.32;5.55;;;;;;;34.84;4.48;97973.06;6293902;28;20044;-66
2023/04/09 06:34:50;;;;;;;15.30;6.75;;;;;;;35.97;4.25;97964.13;6290729;28;20266;-64
2023/04/09 06:37:55;;;;;;;11.00;5.47;;;;;;;35.79;4.28;97966.16;6293651;28;20040;-64
2023/04/09 06:41:00;;;;;;;9.05;4.72;;;;;;;35.37;4.27;97955.97;6289364;28;20068;-67
2023/04/09 06:44:07;;;;;;;9.57;4.68;;;;;;;35.96;4.14;97950.69;6290891;28;20076;-66
2023/04/09 06:47:12;;;;;;;8.80;4.80;;;;;;;37.64;3.72;97955.44;6289913;28;20408;-64
2023/04/09 06:50:15;;;;;;;12.80;5.35;;;;;;;37.73;3.07;97954.78;6286784;28;20045;-68
2023/04/09 06:53:20;;;;;;;9.52;5.05;;;;;;;37.44;3.55;97947.66;6291724;28;20056;-67
2023/04/09 06:56:24;;;;;;;9.30;5.20;;;;;;;37.00;3.86;97945.41;6290075;28;20044;-67
2023/04/09 06:59:31;;;;;;;8.55;4.63;;;;;;;38.17;3.16;97937.69;6289512;28;20494;-69
2023/04/09 07:02:37;;;;;;;9.35;5.22;;;;;;;39.41;2.87;97941.00;6293549;28;20033;-64
2023/04/09 07:05:38;;;;;;;11.75;5.30;;;;;;;39.24;3.08;97935.56;6283823;28;20121;-64
2023/04/09 07:08:44;;;;;;;12.48;5.13;;;;;;;37.73;3.43;97926.50;6288957;28;20044;-64
2023/04/09 07:11:45;;;;;;;11.93;5.78;;;;;;;36.46;3.84;97927.47;6296385;28;20182;-64
2023/04/09 07:14:51;;;;;;;11.25;5.90;;;;;;;36.67;3.94;97926.06;6285710;28;20044;-66
2023/04/09 07:17:52;;;;;;;10.02;4.68;;;;;;;37.11;3.99;97924.50;6288588;28;20047;-65
2023/04/09 07:20:56;;;;;;;11.27;5.30;;;;;;;38.05;3.84;97917.69;6291266;28;20036;-65
2023/04/09 07:24:02;;;;;;;13.27;4.65;;;;;;;38.54;3.68;97917.91;6292907;28;20554;-69
2023/04/09 07:27:08;;;;;;;12.85;5.28;;;;;;;40.43;3.35;97922.59;6293369;28;20498;-66
2023/04/09 07:30:12;;;;;;;6.32;3.75;;;;;;;40.65;3.02;97921.63;6292137;28;20036;-65
2023/04/09 07:33:19;;;;;;;9.43;3.95;;;;;;;40.52;3.14;97918.22;6292330;28;20044;-67
2023/04/09 07:36:23;;;;;;;5.68;2.90;;;;;;;40.81;2.85;97915.91;6292259;28;20045;-66
2023/04/09 07:39:27;;;;;;;5.85;2.92;;;;;;;41.92;2.48;97913.69;6290913;28;20121;-66
2023/04/09 07:42:31;;;;;;;6.10;2.67;;;;;;;41.53;2.43;97901.50;6289368;28;20116;-67
2023/04/09 07:45:33;;;;;;;6.03;3.20;;;;;;;39.91;2.73;97891.03;6284025;28;20060;-65
2023/04/09 07:48:34;;;;;;;;;;;;;;;41.64;2.67;97889.34;6290898;28;20044;-65
2023/04/09 07:51:45;;;;;;;6.35;3.00;;;;;;;41.25;2.35;97878.81;6288264;28;20347;-64
2023/04/09 07:54:49;;;;;;;4.15;2.53;;;;;;;41.89;1.84;97881.03;6292211;28;20044;-65
2023/04/09 07:57:50;;;;;;;;;;;;;;;44.63;1.49;97891.09;6291072;28;20052;-65
2023/04/09 08:00:51;;;;;;;3.75;2.03;;;;;;;43.83;1.79;97884.13;6291018;28;19916;-65
2023/04/09 08:03:58;;;;;;;4.15;2.08;;;;;;;41.39;2.10;97871.63;6291460;28;20414;-66
2023/04/09 08:07:04;;;;;;;3.10;1.70;;;;;;;40.81;2.25;97870.91;6291082;28;20053;-66
2023/04/09 08:10:13;;;;;;;3.35;1.77;;;;;;;42.08;2.29;97861.97;6291942;28;20513;-65
2023/04/09 08:13:15;;;;;;;5.80;2.20;;;;;;;42.98;2.02;97857.53;6289918;28;20102;-66
2023/04/09 08:16:23;;;;;;;5.75;1.77;;;;;;;43.52;1.56;97866.91;6288366;28;20052;-65
2023/04/09 08:19:26;;;;;;;1.88;1.40;;;;;;;42.24;1.87;97854.47;6287385;28;20032;-66
2023/04/09 08:22:27;;;;;;;1.77;1.20;;;;;;;42.59;1.79;97850.78;6286476;28;20485;-65
2023/04/09 08:25:29;;;;;;;;;;;;;;;44.91;1.00;97862.44;6279246;28;20044;-65
2023/04/09 08:28:33;;;;;;;3.58;1.42;;;;;;;43.15;1.78;97846.94;6281218;28;20519;-64
2023/04/09 08:31:40;;;;;;;4.00;1.35;;;;;;;42.47;1.86;97841.16;6291713;28;20049;-64
2023/04/09 08:34:42;;;;;;;4.82;1.90;;;;;;;42.03;1.52;97841.81;6285412;28;20105;-64
2023/04/09 08:37:49;;;;;;;3.45;1.70;;;;;;;43.09;1.60;97836.13;6288473;28;20501;-64
2023/04/09 08:40:51;;;;;;;2.78;1.70;;;;;;;44.62;1.11;97839.47;6288338;28;20067;-64
2023/04/09 08:43:58;;;;;;;5.82;1.90;;;;;;;44.52;1.12;97832.94;6286480;28;20067;-64
2023/04/09 08:47:10;;;;;;;3.85;1.48;;;;;;;44.97;1.16;97830.69;6284495;28;20044;-65
2023/04/09 08:50:13;;;;;;;5.30;1.30;;;;;;;44.79;1.10;97828.75;6283778;28;20049;-64
2023/04/09 08:53:18;;;;;;;2.08;1.25;;;;;;;44.75;0.82;97833.22;6286716;28;20037;-63
2023/04/09 08:56:20;;;;;;;2.17;1.55;;;;;;;44.45;0.97;97829.72;6286497;28;20468;-69
2023/04/09 08:59:22;;;;;;;1.65;1.08;;;;;;;44.57;0.79;97816.22;6287734;28;20051;-64
2023/04/09 09:02:23;;;;;;;1.25;1.00;;;;;;;43.90;0.81;97812.50;6288516;28;20041;-64
2023/04/09 09:05:54;;;;;;;5.20;1.58;;;;;;;42.75;1.61;97804.53;6289900;28;20151;-64
2023/04/09 09:09:18;;;;;;;1.65;1.08;;;;;;;40.83;1.56;97792.28;6289159;28;20057;-65
2023/04/09 09:12:34;;;;;;;2.20;1.58;;;;;;;40.14;2.02;97790.63;6291946;28;20048;-64
2023/04/09 09:15:38;;;;;;;2.45;1.40;;;;;;;40.29;1.75;97783.53;6293633;28;20513;-65
2023/04/09 09:18:42;;;;;;;3.58;1.92;;;;;;;40.99;1.59;97784.88;6291561;28;20055;-66
2023/04/09 09:21:59;;;;;;;2.13;1.10;;;;;;;40.13;2.00;97771.56;6290977;28;20102;-70
2023/04/09 09:25:00;;;;;;;1.65;1.23;;;;;;;40.26;1.51;97775.81;6290155;28;20044;-64
2023/04/09 09:28:10;;;;;;;3.47;1.42;;;;;;;40.53;1.85;97762.66;6289364;28;20052;-65
2023/04/09 09:31:18;;;;;;;2.97;1.40;;;;;;;40.44;1.71;97761.53;6290967;28;20426;-63
2023/04/09 09:34:23;;;;;;;5.20;1.92;;;;;;;38.66;2.17;97748.06;6288215;28;20053;-64
2023/04/09 09:37:28;;;;;;;3.70;2.00;;;;;;;37.17;2.36;97747.06;6291931;28;20042;-65
2023/04/09 09:40:29;;;;;;;3.97;1.58;;;;;;;36.79;2.81;97738.47;6291912;28;20056;-65
2023/04/09 09:43:42;;;;;;;2.58;1.55;;;;;;;36.69;2.69;97735.53;6291265;28;20052;-66
2023/04/09 09:46:44;;;;;;;3.35;1.42;;;;;;;37.46;2.56;97734.94;6294019;28;20421;-65
2023/04/09 09:49:49;;;;;;;3.25;1.50;;;;;;;38.11;2.05;97738.91;6292766;28;20058;-64
2023/04/09 09:53:05;;;;;;;5.00;1.58;;;;;;;38.80;2.34;97729.22;6286630;28;20040;-65
2023/04/09 09:56:15;;;;;;;4.53;1.38;;;;;;;38.59;2.26;97736.47;6290697;28;20517;-66
2023/04/09 09:59:25;;;;;;;4.03;1.73;;;;;;;38.60;2.58;97736.19;6287953;28;20063;-66
2023/04/09 10:02:36;;;;;;;2.22;1.50;;;;;;;38.08;2.51;97730.34;6290232;28;20422;-65
2023/04/09 10:05:43;;;;;;;2.15;1.02;;;;;;;37.67;2.36;97718.78;6291524;28;20044;-65
2023/04/09 10:08:52;;;;;;;2.47;1.80;;;;;;;37.56;2.36;97711.47;6286797;28;20418;-65
2023/04/09 10:11:56;;;;;;;2.33;1.10;;;;;;;37.16;2.79;97701.53;6292287;28;20064;-65
2023/04/09 10:15:04;;;;;;;3.53;1.00;;;;;;;37.82;2.35;97705.28;6291337;28;20517;-65
2023/04/09 10:18:06;;;;;;;2.20;1.38;;;;;;;37.95;2.06;97699.41;6287257;28;20052;-65
2023/04/09 10:21:23;;;;;;;3.25;1.33;;;;;;;38.57;2.31;97700.13;6293701;28;20462;-67
2023/04/09 10:24:31;;;;;;;2.35;1.23;;;;;;;37.80;2.14;97693.69;6283762;28;20045;-65
2023/04/09 10:27:38;;;;;;;1.80;1.20;;;;;;;37.50;2.67;97692.19;6292211;28;20502;-66
2023/04/09 10:30:40;;;;;;;2.92;1.20;;;;;;;37.57;2.68;97685.66;6290185;28;20052;-66
2023/04/09 10:34:13;;;;;;;2.35;1.40;;;;;;;36.05;2.78;97685.50;6291713;28;20340;-66
2023/04/09 10:37:22;;;;;;;2.10;1.02;;;;;;;34.68;3.07;97664.75;6290078;28;20044;-66
2023/04/09 10:40:27;;;;;;;1.98;1.48;;;;;;;35.14;3.14;97664.03;6290822;28;20445;-65
2023/04/09 10:43:34;;;;;;;2.17;1.25;;;;;;;33.27;3.25;97662.09;6292525;28;20052;-64
2023/04/09 10:46:41;;;;;;;1.10;0.82;;;;;;;31.89;3.62;97657.34;6292218;28;20109;-65
2023/04/09 10:49:43;;;;;;;3.53;1.27;;;;;;;31.82;3.97;97640.19;6289200;28;20039;-66
2023/04/09 10:52:45;;;;;;;3.20;1.20;;;;;;;32.31;4.04;97638.72;6285601;28;20421;-66
2023/04/09 10:55:50;;;;;;;2.50;0.93;;;;;;;32.48;4.04;97641.78;6292326;28;20095;-66
2023/04/09 10:58:54;;;;;;;2.83;1.50;;;;;;;32.32;3.64;97641.22;6291470;28;20054;-65
2023/04/09 11:01:56;;;;;;;2.60;1.13;;;;;;;32.30;3.78;97626.13;6292279;28;20581;-65
2023/04/09 11:05:06;;;;;;;3.33;1.45;;;;;;;31.45;4.49;97629.03;6292095;28;20513;-65
2023/04/09 11:08:11;;;;;;;2.40;1.30;;;;;;;29.90;4.84;97626.47;6292251;28;20052;-66
2023/04/09 11:11:15;;;;;;;3.08;1.20;;;;;;;28.83;5.09;97607.91;6292961;28;20053;-67
2023/04/09 11:14:22;;;;;;;4.53;1.70;;;;;;;28.39;5.28;97600.84;6292070;28;20514;-65
2023/04/09 11:17:24;;;;;;;3.10;1.50;;;;;;;28.53;5.28;97608.09;6290884;28;20174;-65
2023/04/09 11:20:29;;;;;;;1.88;1.17;;;;;;;28.48;5.22;97594.31;6283816;28;20056;-66
2023/04/09 11:23:32;;;;;;;3.28;1.30;;;;;;;27.87;5.41;97593.91;6291350;28;20057;-65
2023/04/09 11:26:37;;;;;;;1.53;1.37;;;;;;;27.65;5.69;97588.41;6292204;28;20524;-66
2023/04/09 11:29:41;;;;;;;1.90;1.40;;;;;;;28.27;5.48;97587.00;6285676;28;20463;-66
2023/04/09 11:32:45;;;;;;;1.92;1.40;;;;;;;28.68;5.40;97577.38;6285882;28;20142;-64
2023/04/09 11:35:47;;;;;;;4.55;1.45;;;;;;;28.54;5.45;97582.69;6289016;28;20383;-63
2023/04/09 11:38:54;;;;;;;2.23;1.63;;;;;;;27.54;5.72;97580.78;6287020;28;20048;-62
2023/04/09 11:41:56;;;;;;;3.97;1.75;;;;;;;27.20;5.77;97566.03;6284164;28;20044;-63
2023/04/09 11:45:02;;;;;;;6.03;1.83;;;;;;;27.11;5.95;97564.41;6287278;28;20278;-62
2023/04/09 11:48:09;;;;;;;2.90;1.00;;;;;;;26.73;6.03;97575.31;6288654;28;20040;-63
2023/04/09 11:51:16;;;;;;;3.28;1.20;;;;;;;25.19;6.71;97551.94;6286970;28;20311;-62
2023/04/09 11:54:18;;;;;;;3.67;1.60;;;;;;;24.87;6.85;97563.63;6291692;28;20053;-63
2023/04/09 11:57:22;;;;;;;2.60;1.50;;;;;;;24.65;7.07;97554.44;6285957;28;20469;-62
2023/04/09 12:00:28;;;;;;;4.57;1.70;;;;;;;24.51;7.17;97558.66;6286127;28;20053;-62
2023/04/09 12:03:33;;;;;;;1.42;1.20;;;;;;;23.85;7.23;97540.84;6286628;28;20127;-63
2023/04/09 12:06:42;;;;;;;2.47;1.40;;;;;;;23.37;7.56;97547.78;6282192;28;20190;-63
2023/04/09 12:09:47;;;;;;;3.22;1.63;;;;;;;22.56;8.14;97549.06;6280701;28;20415;-63
2023/04/09 12:12:48;;;;;;;5.90;2.40;;;;;;;22.39;8.42;97546.28;6285523;28;20086;-63
2023/04/09 12:15:55;;;;;;;3.30;2.50;;;;;;;22.38;8.52;97547.28;6283415;28;20521;-63
2023/04/09 12:18:59;;;;;;;2.50;1.80;;;;;;;22.36;8.65;97543.94;6279241;28;20051;-66
2023/04/09 12:22:05;;;;;;;5.68;1.95;;;;;;;21.86;9.04;97539.13;6280445;28;20053;-63
2023/04/09 12:25:07;;;;;;;2.75;1.98;;;;;;;21.11;9.26;97535.81;6286387;28;20493;-66
2023/04/09 12:28:14;;;;;;;6.75;2.10;;;;;;;20.44;9.59;97532.44;6279026;28;20036;-64
2023/04/09 12:31:15;;;;;;;2.42;1.90;;;;;;;19.78;9.62;97537.72;6282958;28;20044;-63
2023/04/09 12:34:17;;;;;;;2.60;1.92;;;;;;;19.07;10.09;97530.72;6291689;28;20532;-63
2023/04/09 12:37:18;;;;;;;3.90;1.98;;;;;;;18.86;10.55;97516.63;6286312;28;20052;-64
2023/04/09 12:40:20;;;;;;;3.03;1.83;;;;;;;18.88;10.75;97510.19;6299763;28;20587;-64
2023/04/09 12:43:26;;;;;;;3.45;1.80;;;;;;;19.18;10.30;97506.59;6287083;28;20049;-63
2023/04/09 12:46:31;;;;;;;9.38;4.30;;;;;;;19.10;10.59;97505.59;6287270;28;20036;-64
2023/04/09 12:49:53;;;;;;;4.57;2.83;;;;;;;18.77;10.79;97507.63;6286221;28;20044;-63
2023/04/09 12:53:07;;;;;;;3.65;1.83;;;;;;;18.59;10.89;97505.53;6290990;28;20119;-64
2023/04/09 12:56:09;;;;;;;2.90;2.03;;;;;;;18.55;10.78;97508.63;6293404;28;20053;-64
2023/04/09 12:59:30;;;;;;;3.47;2.20;;;;;;;18.69;10.58;97496.75;6287448;28;20149;-64
2023/04/09 13:02:31;;;;;;;6.85;2.95;;;;;;;18.70;10.86;97501.94;6288913;28;20043;-64
2023/04/09 13:05:34;;;;;;;4.03;1.48;;;;;;;18.28;11.57;97491.38;6292531;28;20045;-65
2023/04/09 13:08:38;;;;;;;3.78;2.58;;;;;;;17.62;11.88;97496.09;6291569;28;20131;-64
2023/04/09 13:12:00;;;;;;;3.45;2.00;;;;;;;17.24;12.04;97490.34;6293484;28;20458;-64
2023/04/09 13:15:02;;;;;;;5.25;1.90;;;;;;;17.00;12.22;97474.56;6286660;28;20135;-66
2023/04/09 13:18:23;;;;;;;6.07;2.85;;;;;;;16.97;12.58;97482.78;6290886;28;20137;-63
2023/04/09 13:21:29;;;;;;;5.55;1.92;;;;;;;16.74;12.66;97478.44;6290045;28;20053;-65
2023/04/09 13:24:38;;;;;;;3.28;1.80;;;;;;;16.33;12.94;97478.13;6286935;28;20041;-63
2023/04/09 13:27:39;;;;;;;3.40;2.58;;;;;;;15.93;13.35;97480.34;6292882;28;20049;-63
2023/04/09 13:31:01;;;;;;;3.60;2.40;;;;;;;15.85;13.50;97477.44;6282540;28;20505;-63
2023/04/09 13:34:25;;;;;;;14.68;6.47;;;;;;;15.29;13.83;97477.25;6289295;28;20539;-63
2023/04/09 13:37:29;;;;;;;5.30;2.72;;;;;;;14.87;14.22;97476.78;6292001;28;20041;-62
2023/04/09 13:40:31;;;;;;;4.85;2.58;;;;;;;14.57;14.27;97470.06;6285022;28;20040;-63
2023/04/09 13:43:53;;;;;;;3.80;2.08;;;;;;;14.65;14.60;97462.44;6285240;28;20045;-63
2023/04/09 13:47:17;;;;;;;5.28;3.55;;;;;;;14.36;14.70;97465.31;6288579;28;20131;-64
2023/04/09 13:50:41;;;;;;;4.40;2.88;;;;;;;14.22;14.86;97468.09;6286408;28;20076;-63
2023/04/09 13:54:01;;;;;;;8.45;2.88;;;;;;;13.99;15.19;97468.88;6285666;28;20836;-63
2023/04/09 13:57:23;;;;;;;2.75;1.90;;;;;;;13.92;16.21;97465.78;6287249;28;20048;-63
2023/04/09 14:00:31;;;;;;;8.38;1.75;;;;;;;13.57;16.96;97462.91;6287904;28;20502;-65
2023/04/09 14:03:39;;;;;;;1.73;1.23;;;;;;;13.41;17.07;97465.72;6281260;28;20049;-62
2023/04/09 14:06:41;;;;;;;3.13;1.65;;;;;;;13.32;17.50;97467.19;6289269;28;20044;-63
2023/04/09 14:09:46;;;;;;;2.83;1.55;;;;;;;13.08;17.78;97452.91;6287952;28;20398;-63
2023/04/09 14:12:49;;;;;;;2.97;1.42;;;;;;;12.81;18.53;97459.06;6288253;28;20402;-63
2023/04/09 14:15:53;;;;;;;1.67;1.20;;;;;;;12.61;19.03;97455.03;6287127;28;20048;-64
2023/04/09 14:18:56;;;;;;;;;;;;;;;12.42;19.25;97446.59;6291220;28;20040;-63
2023/04/09 14:21:58;;;;;;;1.48;1.00;;;;;;;12.02;19.81;97451.72;6292860;28;20393;-64
2023/04/09 14:24:59;;;;;;;2.42;1.20;;;;;;;11.55;20.21;97458.91;6289973;28;20036;-63
2023/04/09 14:28:03;;;;;;;3.53;0.88;;;;;;;11.21;20.51;97450.34;6289019;28;20421;-64
2023/04/09 14:31:07;;;;;;;3.13;0.70;;;;;;;10.98;21.00;97463.97;6292119;28;20064;-64
2023/04/09 14:34:14;;;;;;;1.35;0.80;;;;;;;10.82;21.72;97457.91;6293006;28;20048;-65